createdAt,value
2022-11-24T00:00:48.267Z,82.39
2022-11-24T00:01:48.440Z,82.57
2022-11-24T00:02:49.492Z,82.86
2022-11-24T00:03:48.211Z,82.48
2022-11-24T00:04:48.474Z,83.24
2022-11-24T00:05:48.180Z,83.14
2022-11-24T00:06:48.281Z,82.95
2022-11-24T00:07:48.650Z,82.95
2022-11-24T00:08:48.500Z,82.95
2022-11-24T00:09:48.234Z,83.33
2022-11-24T00:10:48.463Z,83.71
2022-11-24T00:11:48.190Z,83.52
2022-11-24T00:12:48.178Z,83.71
2022-11-24T00:13:48.417Z,83.52
2022-11-24T00:14:48.138Z,84.19
2022-11-24T00:15:48.378Z,84.66
2022-11-24T00:16:48.567Z,84.94
2022-11-24T00:17:48.340Z,84.75
2022-11-24T00:18:48.341Z,85.04
2022-11-24T00:19:48.305Z,85.61
2022-11-24T00:20:48.306Z,85.61
2022-11-24T00:21:48.263Z,85.7
2022-11-24T00:22:48.259Z,85.89
2022-11-24T00:23:48.139Z,86.18
2022-11-24T00:24:47.960Z,86.27
2022-11-24T00:25:48.196Z,85.7
2022-11-24T00:26:47.935Z,86.27
2022-11-24T00:27:48.175Z,85.7
2022-11-24T00:28:47.883Z,85.99
2022-11-24T00:29:47.972Z,85.51
2022-11-24T00:30:48.216Z,85.7
2022-11-24T00:31:48.088Z,85.61
2022-11-24T00:32:48.074Z,85.7
2022-11-24T00:33:48.062Z,85.51
2022-11-24T00:34:48.061Z,86.08
2022-11-24T00:35:47.770Z,86.18
2022-11-24T00:36:48.024Z,86.74
2022-11-24T00:37:47.985Z,85.99
2022-11-24T00:38:47.972Z,86.18
2022-11-24T00:39:47.947Z,85.89
2022-11-24T00:40:47.676Z,85.8
2022-11-24T00:41:47.915Z,85.7
2022-11-24T00:42:47.666Z,86.18
2022-11-24T00:43:47.880Z,85.7
2022-11-24T00:44:47.603Z,86.27
2022-11-24T00:45:48.188Z,85.89
2022-11-24T00:46:48.254Z,86.36
2022-11-24T00:47:47.550Z,87.02
2022-11-24T00:48:47.537Z,86.27
2022-11-24T00:49:47.919Z,86.83
2022-11-24T00:50:47.784Z,86.83
2022-11-24T00:51:47.481Z,86.55
2022-11-24T00:52:47.748Z,87.12
2022-11-24T00:53:47.462Z,87.4
2022-11-24T00:54:47.526Z,87.4
2022-11-24T00:55:47.664Z,87.4
2022-11-24T00:56:47.648Z,87.98
2022-11-24T00:57:47.382Z,88.07
2022-11-24T00:58:47.614Z,88.17
2022-11-24T00:59:47.593Z,88.07
2022-11-24T01:00:47.325Z,88.17
2022-11-24T01:01:47.546Z,88.73
2022-11-24T01:02:47.420Z,88.92
2022-11-24T01:03:47.536Z,89.39
2022-11-24T01:04:47.662Z,89.77
2022-11-24T01:05:47.497Z,90.15
2022-11-24T01:06:47.657Z,90.15
2022-11-24T01:07:47.482Z,90.91
2022-11-24T01:08:47.621Z,90.81
2022-11-24T01:09:47.727Z,91
2022-11-24T01:10:47.303Z,90.81
2022-11-24T01:11:47.535Z,91.38
2022-11-24T01:12:47.271Z,91.38
2022-11-24T01:13:47.501Z,91.48
2022-11-24T01:14:47.333Z,91.57
2022-11-24T01:15:47.648Z,91.95
2022-11-24T01:16:47.197Z,92.14
2022-11-24T01:17:47.433Z,91.67
2022-11-24T01:18:47.419Z,92.61
2022-11-24T01:19:47.557Z,92.43
2022-11-24T01:20:47.374Z,92.52
2022-11-24T01:21:47.106Z,92.8
2022-11-24T01:22:47.115Z,92.43
2022-11-24T01:23:47.335Z,93.18
2022-11-24T01:24:47.335Z,93.75
2022-11-24T01:25:47.292Z,93.75
2022-11-24T01:26:47.020Z,93.75
2022-11-24T01:27:47.260Z,93.46
2022-11-24T01:28:50.081Z,93.56
2022-11-24T01:29:46.975Z,93.46
2022-11-24T01:30:47.047Z,93.37
2022-11-24T01:31:47.198Z,93.84
2022-11-24T01:32:47.169Z,93.94
2022-11-24T01:33:47.152Z,94.04
2022-11-24T01:34:47.231Z,94.7
2022-11-24T01:35:47.116Z,94.42
2022-11-24T01:36:46.846Z,94.98
2022-11-24T01:37:47.081Z,95.07
2022-11-24T01:38:47.095Z,94.98
2022-11-24T01:39:47.046Z,95.17
2022-11-24T01:40:47.048Z,95.64
2022-11-24T01:41:47.020Z,95.83
2022-11-24T01:42:46.998Z,95.88
2022-11-24T01:43:46.973Z,96.78
2022-11-24T01:44:46.883Z,96.83
2022-11-24T01:45:46.786Z,97.06
2022-11-24T01:46:46.675Z,97.11
2022-11-24T01:47:46.789Z,97.06
2022-11-24T01:48:46.883Z,97.63
2022-11-24T01:49:46.713Z,97.44
2022-11-24T01:50:46.594Z,98.44
2022-11-24T01:51:46.590Z,98.25
2022-11-24T01:52:46.812Z,98.54
2022-11-24T01:53:46.793Z,98.68
2022-11-24T01:54:46.963Z,98.35
2022-11-24T01:55:46.812Z,99.15
2022-11-24T01:56:46.768Z,99.24
2022-11-24T01:57:46.732Z,99.77
2022-11-24T01:58:46.452Z,99.86
2022-11-24T01:59:46.727Z,99.96
2022-11-24T02:00:46.670Z,99.99
2022-11-24T02:01:46.810Z,99.99
2022-11-24T02:02:46.792Z,99.99
2022-11-24T02:03:47.194Z,99.99
2022-11-24T02:04:47.585Z,99.99
2022-11-24T02:05:47.413Z,99.99
2022-11-24T02:06:47.144Z,99.99
2022-11-24T02:07:47.307Z,99.99
2022-11-24T02:08:47.104Z,99.99
2022-11-24T02:09:47.439Z,99.99
2022-11-24T02:10:47.098Z,99.99
2022-11-24T02:11:47.307Z,99.99
2022-11-24T02:12:47.323Z,99.99
2022-11-24T02:13:47.017Z,99.99
2022-11-24T02:14:47.147Z,99.99
2022-11-24T02:15:47.384Z,99.99
2022-11-24T02:16:47.231Z,99.99
2022-11-24T02:17:46.951Z,99.99
2022-11-24T02:18:46.936Z,99.99
2022-11-24T02:19:47.320Z,99.99
2022-11-24T02:20:47.160Z,99.99
2022-11-24T02:21:47.132Z,99.99
2022-11-24T02:22:47.113Z,99.99
2022-11-24T02:23:47.093Z,99.99
2022-11-24T02:24:47.232Z,99.99
2022-11-24T02:25:47.063Z,99.99
2022-11-24T02:26:47.066Z,99.99
2022-11-24T02:27:53.988Z,99.99
2022-11-24T02:28:47.030Z,99.99
2022-11-24T02:29:46.833Z,99.99
2022-11-24T02:30:46.807Z,99.99
2022-11-24T02:31:46.963Z,99.99
2022-11-24T02:32:46.937Z,99.99
2022-11-24T02:33:46.921Z,99.99
2022-11-24T02:34:47.002Z,99.99
2022-11-24T02:35:46.895Z,99.99
2022-11-24T02:36:46.871Z,99.99
2022-11-24T02:37:46.590Z,99.99
2022-11-24T02:38:46.575Z,99.99
2022-11-24T02:39:46.712Z,99.99
2022-11-24T02:40:46.793Z,99.99
2022-11-24T02:41:46.784Z,99.99
2022-11-24T02:42:46.781Z,99.99
2022-11-24T02:43:46.488Z,99.99
2022-11-24T02:44:46.853Z,99.99
2022-11-24T02:45:46.458Z,99.99
2022-11-24T02:46:46.786Z,99.99
2022-11-24T02:47:46.417Z,99.99
2022-11-24T02:48:46.407Z,99.99
2022-11-24T02:49:46.635Z,99.99
2022-11-24T02:50:46.613Z,99.99
2022-11-24T02:51:46.595Z,99.99
2022-11-24T02:52:46.325Z,99.99
2022-11-24T02:53:46.561Z,99.99
2022-11-24T02:54:46.697Z,99.99
2022-11-24T02:55:46.528Z,99.99
2022-11-24T02:56:46.508Z,99.99
2022-11-24T02:57:46.502Z,99.99
2022-11-24T02:58:46.494Z,99.99
2022-11-24T02:59:46.200Z,99.99
2022-11-24T03:00:46.459Z,99.99
2022-11-24T03:01:46.291Z,99.99
2022-11-24T03:02:46.475Z,99.99
2022-11-24T03:03:46.129Z,99.99
2022-11-24T03:04:46.216Z,99.99
2022-11-24T03:05:46.351Z,99.99
2022-11-24T03:06:46.348Z,99.99
2022-11-24T03:07:46.495Z,99.99
2022-11-24T03:08:46.290Z,99.99
2022-11-24T03:09:46.429Z,99.99
2022-11-24T03:10:46.009Z,99.99
2022-11-24T03:11:45.986Z,99.99
2022-11-24T03:12:46.230Z,99.81
2022-11-24T03:13:46.209Z,99.62
2022-11-24T03:14:46.110Z,99.99
2022-11-24T03:15:46.342Z,99.71
2022-11-24T03:16:46.195Z,99.15
2022-11-24T03:17:46.139Z,98.58
2022-11-24T03:18:45.860Z,99.24
2022-11-24T03:19:46.205Z,98.77
2022-11-24T03:20:46.089Z,98.3
2022-11-24T03:21:45.811Z,98.77
2022-11-24T03:22:46.039Z,98.39
2022-11-24T03:23:45.776Z,97.82
2022-11-24T03:24:46.014Z,98.11
2022-11-24T03:25:45.991Z,98.11
2022-11-24T03:26:45.976Z,98.2
2022-11-24T03:27:45.704Z,97.35
2022-11-24T03:28:45.693Z,97.63
2022-11-24T03:29:45.927Z,97.54
2022-11-24T03:30:45.816Z,97.44
2022-11-24T03:31:45.996Z,96.88
2022-11-24T03:32:45.897Z,96.78
2022-11-24T03:50:19.660Z,95.64
2022-11-24T03:51:19.591Z,95.64
2022-11-24T03:52:19.306Z,95.83
2022-11-24T03:53:19.291Z,95.83
2022-11-24T03:54:19.527Z,95.36
2022-11-24T03:55:19.248Z,96.02
2022-11-24T03:56:19.485Z,95.36
2022-11-24T03:57:19.211Z,94.98
2022-11-24T03:58:19.444Z,95.26
2022-11-24T03:59:19.177Z,95.07
2022-11-24T04:00:19.249Z,94.79
2022-11-24T04:01:19.536Z,94.23
2022-11-24T04:02:19.478Z,94.42
2022-11-24T04:03:19.098Z,94.6
2022-11-24T04:04:19.079Z,94.04
2022-11-24T04:05:19.317Z,94.04
2022-11-24T04:06:19.353Z,93.46
2022-11-24T04:07:19.262Z,93.46
2022-11-24T04:08:19.262Z,93.08
2022-11-24T04:09:19.240Z,92.9
2022-11-24T04:10:19.218Z,92.61
2022-11-24T04:11:19.207Z,92.71
2022-11-24T04:12:18.934Z,92.43
2022-11-24T04:13:19.167Z,92.33
2022-11-24T04:14:19.157Z,92.14
2022-11-24T04:15:19.132Z,91.76
2022-11-24T04:16:19.202Z,91.76
2022-11-24T04:17:18.863Z,92.14
2022-11-24T04:18:19.146Z,91.86
2022-11-24T04:19:18.804Z,91.95
2022-11-24T04:20:18.784Z,91.67
2022-11-24T04:21:19.027Z,91.62
2022-11-24T04:22:19.052Z,91.38
2022-11-24T04:23:19.003Z,92.05
2022-11-24T04:24:18.713Z,90.95
2022-11-24T04:25:19.103Z,90.77
2022-11-24T04:26:18.678Z,90.72
2022-11-24T04:27:18.930Z,90.86
2022-11-24T04:28:18.897Z,90.91
2022-11-24T04:29:18.878Z,90.86
2022-11-24T04:30:18.875Z,90.39
2022-11-24T04:31:18.946Z,90.2
2022-11-24T04:32:18.828Z,90.15
2022-11-24T04:33:18.874Z,90.1
2022-11-24T04:34:18.536Z,89.53
2022-11-24T04:35:19.385Z,89.91
2022-11-24T04:36:19.217Z,89.82
2022-11-24T04:37:19.453Z,89.63
2022-11-24T04:39:24.573Z,89.34
2022-11-24T04:39:36.527Z,89.06
2022-11-24T04:40:36.509Z,89.06
2022-11-24T04:41:36.491Z,88.68
2022-11-24T04:42:36.732Z,88.4
2022-11-24T04:43:42.821Z,88.96
2022-11-24T04:44:37.183Z,88.78
2022-11-24T04:45:36.844Z,88.78
2022-11-24T04:46:36.572Z,88.68
2022-11-24T04:47:36.646Z,88.68
2022-11-24T04:48:36.628Z,88.78
2022-11-24T04:49:36.349Z,88.78
2022-11-24T04:50:36.342Z,88.21
2022-11-24T04:51:36.572Z,87.92
2022-11-24T04:52:36.296Z,88.78
2022-11-24T04:53:36.562Z,88.11
2022-11-24T04:54:36.730Z,87.92
2022-11-24T04:55:36.650Z,87.83
2022-11-24T04:56:36.487Z,88.02
2022-11-24T04:57:36.467Z,87.45
2022-11-24T04:58:36.458Z,88.02
2022-11-24T04:59:36.435Z,88.11
2022-11-24T05:00:36.513Z,87.92
2022-11-24T05:01:36.293Z,88.4
2022-11-24T05:02:36.384Z,88.59
2022-11-24T05:03:36.358Z,88.11
2022-11-24T05:04:37.276Z,87.92
2022-11-24T05:05:36.171Z,87.26
2022-11-24T05:06:36.063Z,87.35
2022-11-24T05:07:36.429Z,87.54
2022-11-24T05:08:36.022Z,87.35
2022-11-24T05:10:00.840Z,87.26
2022-11-24T05:10:36.091Z,87.26
2022-11-24T05:11:36.221Z,86.88
2022-11-24T05:12:35.963Z,87.16
2022-11-24T05:13:35.928Z,87.07
2022-11-24T05:14:36.602Z,86.69
2022-11-24T05:15:36.054Z,86.79
2022-11-24T05:16:36.226Z,86.79
2022-11-24T05:17:35.864Z,86.88
2022-11-24T05:18:35.850Z,86.6
2022-11-24T05:19:36.086Z,86.69
2022-11-24T05:20:36.075Z,86.88
2022-11-24T05:21:35.792Z,86.88
2022-11-24T05:22:36.035Z,86.88
2022-11-24T05:23:36.018Z,86.88
2022-11-24T05:24:36.316Z,87.07
2022-11-24T05:25:36.033Z,86.22
2022-11-24T05:26:35.875Z,86.03
2022-11-24T05:27:35.948Z,86.41
2022-11-24T05:28:35.938Z,86.31
2022-11-24T05:32:33.173Z,85.93
2022-11-24T05:33:33.645Z,86.41
2022-11-24T05:34:33.741Z,86.31
2022-11-24T05:35:33.114Z,85.93
2022-11-24T05:36:33.360Z,85.55
2022-11-24T05:37:33.340Z,85.6
2022-11-24T05:38:33.323Z,85.41
2022-11-24T05:39:33.303Z,85.03
2022-11-24T05:40:33.031Z,84.84
2022-11-24T05:41:33.314Z,84.94
2022-11-24T05:42:33.258Z,84.74
2022-11-24T05:43:33.236Z,84.08
2022-11-24T05:44:33.345Z,84.46
2022-11-24T05:45:32.944Z,84.27
2022-11-24T05:46:33.022Z,84.74
2022-11-24T05:47:33.266Z,85.13
2022-11-24T05:48:32.893Z,84.84
2022-11-24T05:49:33.129Z,85.41
2022-11-24T05:50:33.119Z,85.5
2022-11-24T05:51:32.841Z,85.6
2022-11-24T05:52:33.086Z,85.78
2022-11-24T05:53:32.812Z,86.35
2022-11-24T05:54:33.222Z,86.07
2022-11-24T05:55:32.776Z,86.83
2022-11-24T05:56:33.010Z,86.74
2022-11-24T05:57:33.057Z,87.49
2022-11-24T05:58:32.991Z,87.21
2022-11-24T05:59:32.710Z,87.49
2022-11-24T06:00:32.952Z,87.97
2022-11-24T06:01:33.031Z,88.63
2022-11-24T06:02:33.176Z,88.73
2022-11-24T06:03:32.645Z,89.11
2022-11-24T06:04:33.124Z,89.01
2022-11-24T06:05:32.611Z,88.82
2022-11-24T06:06:32.847Z,88.82
2022-11-24T06:07:32.955Z,88.35
2022-11-24T06:08:34.001Z,87.97
2022-11-24T06:09:32.543Z,87.49
2022-11-24T06:10:32.893Z,87.87
2022-11-24T06:11:32.509Z,87.02
2022-11-24T06:12:32.493Z,87.21
2022-11-24T06:13:33.036Z,86.45
2022-11-24T06:14:32.725Z,86.83
2022-11-24T06:15:32.441Z,86.55
2022-11-24T06:16:32.753Z,86.64
2022-11-24T06:17:32.662Z,86.93
2022-11-24T06:18:32.395Z,86.74
2022-11-24T06:19:32.635Z,86.64
2022-11-24T06:20:35.191Z,86.83
2022-11-24T06:21:32.598Z,87.21
2022-11-24T06:22:32.578Z,86.83
2022-11-24T06:23:32.563Z,87.3
2022-11-24T06:24:32.625Z,87.3
2022-11-24T06:25:32.277Z,87.77
2022-11-24T06:26:32.270Z,87.3
2022-11-24T06:27:32.240Z,87.77
2022-11-24T06:28:32.477Z,88.16
2022-11-24T06:29:32.608Z,87.87
2022-11-24T06:30:32.443Z,88.16
2022-11-24T06:31:32.243Z,88.06
2022-11-24T06:32:32.158Z,87.68
2022-11-24T06:33:32.145Z,87.49
2022-11-24T06:34:32.836Z,87.68
2022-11-24T06:35:32.362Z,87.68
2022-11-24T06:36:32.344Z,87.4
2022-11-24T06:37:32.335Z,87.3
2022-11-24T06:38:32.316Z,87.12
2022-11-24T06:39:32.046Z,86.93
2022-11-24T06:40:32.025Z,86.93
2022-11-24T06:41:32.010Z,87.02
2022-11-24T06:42:32.250Z,86.55
2022-11-24T06:43:31.976Z,87.87
2022-11-24T06:44:32.702Z,87.68
2022-11-24T06:45:32.352Z,87.68
2022-11-24T06:46:31.944Z,87.68
2022-11-24T06:47:31.913Z,87.68
2022-11-24T06:48:31.892Z,87.4
2022-11-24T06:49:31.877Z,87.49
2022-11-24T06:50:36.154Z,87.12
2022-11-24T06:51:31.842Z,87.3
2022-11-24T06:52:32.079Z,87.4
2022-11-24T06:53:32.090Z,87.4
2022-11-24T06:54:32.252Z,87.4
2022-11-24T06:55:32.036Z,86.64
2022-11-24T06:56:31.761Z,87.02
2022-11-24T06:57:32.005Z,86.16
2022-11-24T06:58:31.728Z,85.78
2022-11-24T06:59:31.968Z,85.97
2022-11-24T07:00:32.042Z,85.69
2022-11-24T07:01:32.107Z,85.6
2022-11-24T07:02:31.919Z,85.6
2022-11-24T07:03:32.034Z,85.6
2022-11-24T07:04:32.075Z,84.94
2022-11-24T07:05:31.613Z,85.13
2022-11-24T07:06:31.850Z,85.03
2022-11-24T07:07:31.938Z,85.03
2022-11-24T07:08:31.809Z,84.74
2022-11-24T07:09:31.800Z,84.74
2022-11-24T07:10:31.950Z,85.13
2022-11-24T07:11:31.520Z,85.13
2022-11-24T07:12:31.742Z,85.13
2022-11-24T07:13:31.733Z,84.84
2022-11-24T07:14:31.971Z,84.94
2022-11-24T07:15:31.695Z,84.74
2022-11-24T07:16:31.895Z,85.03
2022-11-24T07:17:31.714Z,85.03
2022-11-24T07:18:31.654Z,84.74
2022-11-24T07:19:31.637Z,84.65
2022-11-24T07:20:31.437Z,83.98
2022-11-24T07:21:31.378Z,84.36
2022-11-24T07:22:31.582Z,83.89
2022-11-24T07:23:31.561Z,83.98
2022-11-24T07:24:31.690Z,83.61
2022-11-24T07:25:31.281Z,83.8
2022-11-24T07:26:31.533Z,83.61
2022-11-24T07:27:31.501Z,83.23
2022-11-24T07:28:31.508Z,83.42
2022-11-24T07:29:31.219Z,83.23
2022-11-24T07:30:31.359Z,83.42
2022-11-24T07:31:31.603Z,83.23
2022-11-24T07:32:31.421Z,82.94
2022-11-24T07:33:31.454Z,82.98
2022-11-24T07:34:31.216Z,82.94
2022-11-24T07:35:31.363Z,83.08
2022-11-24T07:36:31.351Z,83.04
2022-11-24T07:37:34.265Z,83.08
2022-11-24T07:38:31.067Z,82.94
2022-11-24T07:39:31.298Z,83.08
2022-11-24T07:40:31.286Z,82.98
2022-11-24T07:41:31.265Z,83.04
2022-11-24T07:42:31.045Z,83.08
2022-11-24T07:43:31.233Z,83.08
2022-11-24T07:44:30.985Z,82.89
2022-11-24T07:45:31.358Z,82.98
2022-11-24T07:46:31.221Z,82.98
2022-11-24T07:47:31.166Z,82.89
2022-11-24T07:48:31.155Z,83.17
2022-11-24T07:49:31.195Z,82.98
2022-11-24T07:50:31.116Z,82.98
2022-11-24T07:51:31.101Z,83.17
2022-11-24T07:52:31.094Z,82.79
2022-11-24T07:53:31.071Z,82.7
2022-11-24T07:54:31.055Z,82.89
2022-11-24T07:55:31.034Z,82.51
2022-11-24T07:56:31.017Z,82.6
2022-11-24T07:57:31.012Z,82.79
2022-11-24T07:58:35.013Z,82.7
2022-11-24T07:59:30.967Z,82.79
2022-11-24T08:00:30.962Z,82.6
2022-11-24T08:01:30.785Z,82.7
2022-11-24T08:02:30.926Z,82.32
2022-11-24T08:03:31.097Z,82.42
2022-11-24T08:04:30.887Z,82.51
2022-11-24T08:05:30.925Z,82.6
2022-11-24T08:06:41.987Z,82.23
2022-11-24T08:07:30.792Z,82.04
2022-11-24T08:08:30.821Z,81.75
2022-11-24T08:09:30.811Z,81.75
2022-11-24T08:10:30.792Z,81.09
2022-11-24T08:11:30.778Z,81.56
2022-11-24T08:12:30.508Z,81.56
2022-11-24T08:13:30.750Z,81.27
2022-11-24T08:14:30.734Z,81.75
2022-11-24T08:15:30.714Z,82.55
2022-11-24T08:16:30.578Z,82.46
2022-11-24T08:17:30.422Z,82.65
2022-11-24T08:18:30.666Z,82.74
2022-11-24T08:19:30.643Z,82.46
2022-11-24T08:20:30.626Z,82.93
2022-11-24T08:21:30.675Z,82.27
2022-11-24T08:22:30.604Z,82.93
2022-11-24T08:23:30.332Z,83.31
2022-11-24T08:24:30.317Z,83.31
2022-11-24T08:25:30.551Z,83.59
2022-11-24T08:26:30.533Z,84.26
2022-11-24T08:27:30.528Z,84.07
2022-11-24T08:28:30.252Z,83.78
2022-11-24T08:29:30.490Z,83.97
2022-11-24T08:30:30.495Z,84.07
2022-11-24T08:31:30.600Z,83.78
2022-11-24T08:32:30.500Z,84.07
2022-11-24T08:33:30.423Z,84.07
2022-11-24T08:34:30.412Z,83.88
2022-11-24T08:35:30.388Z,83.88
2022-11-24T08:36:30.372Z,83.59
2022-11-24T08:37:30.416Z,83.5
2022-11-24T08:38:30.350Z,83.03
2022-11-24T08:39:30.326Z,83.22
2022-11-24T08:40:30.308Z,83.4
2022-11-24T08:41:30.331Z,83.4
2022-11-24T08:42:30.278Z,83.22
2022-11-24T08:43:30.012Z,83.59
2022-11-24T08:44:30.247Z,83.88
2022-11-24T08:45:36.709Z,84.74
2022-11-24T08:46:30.173Z,85.21
2022-11-24T08:47:30.225Z,85.02
2022-11-24T08:48:29.928Z,84.64
2022-11-24T08:49:30.223Z,84.55
2022-11-24T08:50:29.920Z,85.02
2022-11-24T08:51:30.157Z,85.16
2022-11-24T08:52:30.121Z,85.63
2022-11-24T08:53:30.171Z,86.01
2022-11-24T08:54:30.089Z,86.49
2022-11-24T08:55:30.078Z,86.49
2022-11-24T08:56:29.815Z,86.96
2022-11-24T08:57:29.794Z,87.82
2022-11-24T08:58:29.778Z,88.29
2022-11-24T08:59:30.227Z,88.39
2022-11-24T09:00:30.007Z,88.57
2022-11-24T09:01:30.148Z,89.05
2022-11-24T09:02:29.972Z,89.72
2022-11-24T09:03:29.963Z,90.19
2022-11-24T09:04:30.080Z,91.04
2022-11-24T09:05:59.932Z,91.52
2022-11-24T09:06:29.905Z,91.71
2022-11-24T09:07:30.030Z,92.18
2022-11-24T09:08:29.891Z,92.37
2022-11-24T09:09:29.917Z,94.08
2022-11-24T09:10:29.863Z,95.03
2022-11-24T09:11:29.582Z,96.26
2022-11-24T09:12:29.823Z,97.02
2022-11-24T09:13:29.810Z,98.54
2022-11-24T09:14:30.799Z,98.35
2022-11-24T09:15:30.764Z,98.83
2022-11-24T09:16:30.666Z,98.83
2022-11-24T09:17:30.485Z,98.92
2022-11-24T09:18:32.911Z,99.77
2022-11-24T09:19:30.701Z,99.99
2022-11-24T09:20:30.692Z,99.99
2022-11-24T09:21:30.687Z,99.99
2022-11-24T09:22:30.658Z,99.99
2022-11-24T09:23:30.654Z,99.99
2022-11-24T09:24:30.637Z,99.99
2022-11-24T09:25:30.663Z,99.99
2022-11-24T09:26:30.601Z,99.11
2022-11-24T09:27:30.336Z,98.73
2022-11-24T09:28:30.316Z,98.54
2022-11-24T09:29:30.296Z,97.97
2022-11-24T09:30:30.563Z,97.41
2022-11-24T09:31:30.461Z,97.31
2022-11-24T09:32:30.630Z,98.54
2022-11-24T09:33:30.488Z,98.92
2022-11-24T09:34:30.225Z,99.3
2022-11-24T09:35:30.464Z,98.92
2022-11-24T09:36:30.193Z,99.99
2022-11-24T09:37:34.675Z,99.99
2022-11-24T09:38:30.165Z,99.99
2022-11-24T09:39:30.402Z,99.99
2022-11-24T09:40:30.395Z,99.99
2022-11-24T09:41:30.546Z,99.99
2022-11-24T09:42:30.148Z,99.99
2022-11-24T09:43:30.087Z,99.99
2022-11-24T09:44:30.332Z,99.99
2022-11-24T09:46:07.020Z,99.99
2022-11-24T09:46:30.134Z,99.99
2022-11-24T09:47:30.293Z,99.99
2022-11-24T09:48:30.269Z,99.99
2022-11-24T09:49:30.002Z,99.99
2022-11-24T09:50:30.236Z,99.99
2022-11-24T09:51:30.225Z,99.99
2022-11-24T09:52:29.954Z,99.99
2022-11-24T09:53:29.942Z,99.99
2022-11-24T09:54:30.178Z,99.99
2022-11-24T09:55:30.173Z,99.99
2022-11-24T09:56:29.900Z,99.99
2022-11-24T09:57:37.216Z,99.99
2022-11-24T09:58:29.869Z,99.99
2022-11-24T09:59:30.108Z,99.99
2022-11-24T10:00:29.843Z,99.99
2022-11-24T10:01:29.954Z,99.99
2022-11-24T10:02:30.059Z,99.99
2022-11-24T10:03:30.047Z,99.99
2022-11-24T10:04:30.124Z,99.99
2022-11-24T10:05:30.022Z,99.99
2022-11-24T10:06:30.006Z,99.99
2022-11-24T10:07:29.815Z,99.99
2022-11-24T10:08:29.730Z,99.99
2022-11-24T10:09:29.966Z,99.99
2022-11-24T10:10:30.027Z,99.99
2022-11-24T10:11:29.931Z,99.99
2022-11-24T10:12:29.929Z,99.99
2022-11-24T10:13:29.968Z,99.99
2022-11-24T10:14:29.901Z,99.99
2022-11-24T10:15:29.928Z,99.99
2022-11-24T10:16:30.140Z,99.99
2022-11-24T10:17:29.855Z,99.99
2022-11-24T10:18:29.574Z,99.99
2022-11-24T10:19:39.478Z,99.99
2022-11-24T10:20:29.799Z,99.99
2022-11-24T10:21:29.532Z,99.99
2022-11-24T10:22:29.795Z,99.99
2022-11-24T10:23:29.763Z,99.99
2022-11-24T10:24:29.751Z,99.99
2022-11-24T10:25:29.743Z,99.99
2022-11-24T10:26:29.718Z,99.99
2022-11-24T10:27:29.449Z,99.99
2022-11-24T10:28:29.695Z,99.99
2022-11-24T10:29:29.733Z,99.99
2022-11-24T10:30:29.410Z,99.99
2022-11-24T10:31:29.564Z,99.99
2022-11-24T10:32:29.648Z,99.99
2022-11-24T10:33:33.141Z,99.99
2022-11-24T10:34:29.606Z,99.99
2022-11-24T10:35:29.593Z,99.99
2022-11-24T10:36:29.577Z,99.99
2022-11-24T10:37:29.569Z,99.99
2022-11-24T10:38:29.294Z,99.99
2022-11-24T10:39:29.297Z,99.99
2022-11-24T10:40:58.336Z,99.99
2022-11-24T10:41:29.263Z,99.99
2022-11-24T10:42:29.246Z,99.99
2022-11-24T10:43:29.497Z,99.99
2022-11-24T10:44:29.213Z,99.99
2022-11-24T10:45:29.504Z,99.99
2022-11-24T10:46:31.440Z,99.99
2022-11-24T10:47:29.424Z,99.99
2022-11-24T10:48:29.408Z,99.99
2022-11-24T10:49:29.398Z,99.99
2022-11-24T10:50:29.397Z,99.99
2022-11-24T10:51:29.128Z,99.99
2022-11-24T10:52:29.358Z,99.99
2022-11-24T10:53:29.093Z,99.99
2022-11-24T10:54:29.072Z,99.99
2022-11-24T10:55:29.308Z,99.99
2022-11-24T10:56:29.045Z,99.99
2022-11-24T10:57:29.286Z,99.99
2022-11-24T10:58:32.932Z,99.99
2022-11-24T10:59:29.008Z,99.99
2022-11-24T11:00:29.241Z,99.99
2022-11-24T11:01:29.444Z,99.99
2022-11-24T11:02:29.109Z,99.99
2022-11-24T11:03:29.196Z,99.99
2022-11-24T11:04:29.194Z,99.99
2022-11-24T11:05:29.191Z,99.99
2022-11-24T11:06:29.162Z,99.99
2022-11-24T11:07:28.991Z,99.99
2022-11-24T11:08:29.142Z,99.99
2022-11-24T11:09:29.117Z,99.99
2022-11-24T11:10:29.107Z,99.99
2022-11-24T11:11:29.090Z,99.99
2022-11-24T11:12:59.078Z,99.99
2022-11-24T11:13:28.797Z,99.99
2022-11-24T11:14:29.041Z,99.99
2022-11-24T11:15:29.356Z,99.99
2022-11-24T11:16:29.160Z,99.99
2022-11-24T11:17:29.053Z,99.99
2022-11-24T11:18:28.992Z,99.99
2022-11-24T11:19:51.000Z,99.99
2022-11-24T11:20:28.958Z,99.99
2022-11-24T11:21:28.689Z,99.99
2022-11-24T11:22:28.690Z,99.99
2022-11-24T11:23:28.660Z,99.99
2022-11-24T11:24:28.902Z,99.99
2022-11-24T11:25:28.624Z,99.99
2022-11-24T11:26:28.868Z,99.99
2022-11-24T11:27:28.598Z,99.99
2022-11-24T11:28:28.851Z,99.99
2022-11-24T11:31:26.736Z,99.99
2022-11-24T11:34:30.125Z,99.99
2022-11-24T11:35:14.956Z,99.99
2022-11-24T11:36:14.935Z,99.99
2022-11-24T11:37:14.673Z,99.99
2022-11-24T11:38:14.906Z,99.99
2022-11-24T11:39:14.640Z,99.99
2022-11-24T11:40:15.147Z,99.99
2022-11-24T11:41:14.863Z,99.99
2022-11-24T11:43:14.583Z,99.99
2022-11-24T11:44:14.563Z,99.99
2022-11-24T11:45:14.620Z,99.99
2022-11-24T11:46:15.069Z,99.99
2022-11-24T11:47:14.640Z,99.99
2022-11-24T11:48:14.789Z,99.99
2022-11-24T11:49:14.849Z,99.99
2022-11-24T11:50:15.119Z,99.99
2022-11-24T11:51:25.987Z,99.99
2022-11-24T11:52:15.051Z,99.99
2022-11-24T11:53:15.033Z,99.99
2022-11-24T11:54:14.767Z,99.99
2022-11-24T11:55:15.011Z,99.99
2022-11-24T11:56:14.740Z,99.99
2022-11-24T11:57:14.726Z,99.99
2022-11-24T11:58:14.962Z,99.99
2022-11-24T11:59:14.954Z,99.99
2022-11-24T12:00:15.056Z,99.99
2022-11-24T12:01:14.669Z,99.99
2022-11-24T12:02:15.031Z,99.99
2022-11-24T12:03:14.885Z,99.99
2022-11-24T12:04:15.144Z,99.99
2022-11-24T12:05:14.874Z,99.99
2022-11-24T12:06:14.887Z,99.99
2022-11-24T12:07:14.991Z,99.99
2022-11-24T12:08:21.847Z,99.99
2022-11-24T12:09:23.070Z,99.99
2022-11-24T12:10:15.260Z,99.99
2022-11-24T12:11:15.487Z,99.99
2022-11-24T12:12:15.214Z,99.99
2022-11-24T12:13:15.455Z,99.99
2022-11-24T12:14:15.200Z,99.99
2022-11-24T12:15:15.436Z,99.99
2022-11-24T12:16:15.582Z,99.99
2022-11-24T12:17:15.398Z,99.99
2022-11-24T12:18:57.397Z,99.99
2022-11-24T12:19:15.378Z,99.99
2022-11-24T12:20:15.415Z,99.99
2022-11-24T12:21:15.090Z,99.99
2022-11-24T12:22:15.355Z,99.99
2022-11-24T12:23:15.068Z,99.99
2022-11-24T12:24:15.502Z,99.99
2022-11-24T12:25:15.034Z,99.99
2022-11-24T12:26:15.273Z,99.99
2022-11-24T12:27:22.683Z,99.99
2022-11-24T12:28:14.999Z,99.99
2022-11-24T12:29:15.233Z,99.99
2022-11-24T12:30:15.401Z,99.99
2022-11-24T12:31:15.363Z,99.99
2022-11-24T12:32:15.216Z,99.99
2022-11-24T12:33:15.201Z,99.99
2022-11-24T12:34:15.190Z,99.99
2022-11-24T12:35:15.174Z,99.99
2022-11-24T12:36:14.938Z,99.99
2022-11-24T12:37:15.156Z,99.99
2022-11-24T12:38:15.156Z,99.99
2022-11-24T12:39:14.870Z,99.99
2022-11-24T12:40:15.135Z,99.99
2022-11-24T12:41:42.912Z,99.99
2022-11-24T12:42:15.085Z,99.99
2022-11-24T12:43:14.817Z,99.99
2022-11-24T12:44:15.061Z,99.99
2022-11-24T12:45:15.077Z,99.99
2022-11-24T12:46:19.943Z,99.99
2022-11-24T12:47:15.253Z,99.99
2022-11-24T12:48:15.005Z,99.99
2022-11-24T12:49:14.987Z,99.99
2022-11-24T12:50:14.720Z,99.99
2022-11-24T12:51:14.955Z,99.99
2022-11-24T12:52:14.995Z,99.99
2022-11-24T12:53:14.941Z,99.99
2022-11-24T12:54:14.947Z,99.99
2022-11-24T12:55:14.910Z,99.99
2022-11-24T12:56:14.899Z,99.99
2022-11-24T12:57:14.882Z,99.99
2022-11-24T12:58:14.878Z,99.99
2022-11-24T12:59:14.847Z,99.99
2022-11-24T13:00:14.841Z,99.99
2022-11-24T13:01:19.135Z,99.99
2022-11-24T13:02:14.803Z,99.99
2022-11-24T13:03:14.952Z,99.99
2022-11-24T13:04:14.532Z,99.99
2022-11-24T13:05:14.768Z,99.99
2022-11-24T13:06:14.748Z,99.99
2022-11-24T13:07:14.647Z,99.99
2022-11-24T13:08:14.754Z,99.99
2022-11-24T13:09:14.460Z,99.99
2022-11-24T13:10:14.720Z,99.99
2022-11-24T13:25:16.141Z,99.99
2022-11-24T13:26:16.145Z,99.99
2022-11-24T13:27:16.191Z,99.99
2022-11-24T13:28:20.300Z,99.99
2022-11-24T13:29:28.003Z,99.99
2022-11-24T13:30:26.545Z,99.99
2022-11-24T13:31:26.780Z,99.99
2022-11-24T13:32:26.750Z,99.99
2022-11-24T13:33:29.574Z,99.99